Terminal Aerodrome Forecast
Issued by NWS Sioux Falls, SD

Home | Current Version | Previous Version | Graphics & Text | Print | Product List | Glossary On
Versions: 1 2 3 4 5 6 7 8 9 10 11 12 13 14 15 16 17
000
FTUS43 KFSD 280529
TAFFSD
TAF
KFSD 280529Z 2806/2906 10009KT P6SM -SHRA SCT008 OVC080
      TEMPO 2806/2808 BKN008
     FM280800 08007KT 3SM BR OVC007
     FM281500 06010KT 6SM BR OVC010
     FM281800 05012KT P6SM SCT025 BKN035
     FM282100 05012KT P6SM SCT035=

USA.gov is the U.S. government's official web portal to all federal, state and local government web resources and services.